Steven M. Bryan — WDF2628 — position and weather

sailwx.info

Track history (hours):
 
Tides and Currents Weather Stations Pressure Air Temp Water Temp Dewpoint Dewpoint Depression Visibility Wind Speed Wind Dir Waves Ship Positions

Steven M. Bryan

Owner: Florida Marine Transporters, Inc., Mandeville, LA. More information available from US FCC via Universal Licensing System and Coast Guard Vessel Documentation Center.

Last reported at 2018-May-23 12:07 UTC. Time now 2018-May-27 03:24 UTC.
Position N 30°27' W 086°18'.

Length 27 m; draft 9.6 m.

Type: Ship. MMSI: 367430050.

Date/timePositionNaut miles runAvg speedWind from/ knotsBaromVisibWave heightAir tempDewpointWater temp
2018-May-23 12:07N 30°27' W 086°18'1 6.1
2018-May-23 12:00N 30°26' W 086°18'3 6.1
2018-May-23 11:30N 30°26' W 086°22'3 6.0
2018-May-23 11:00N 30°26' W 086°25'3 6.1
2018-May-23 10:30N 30°26' W 086°29'13 5.0
2018-May-23 07:53N 30°24' W 086°44'2 5.0
2018-May-23 07:30N 30°24' W 086°46'3 5.7
2018-May-23 07:00N 30°24' W 086°49'3 5.4
2018-May-23 06:30N 30°24' W 086°53'  
2018-May-15 11:33N 30°23' W 086°56'1 6.1
2018-May-15 11:28N 30°23' W 086°55'3 6.1
2018-May-15 11:00N 30°24' W 086°52'3 6.2
2018-May-15 10:30N 30°24' W 086°49'3 6.3
2018-May-15 10:00N 30°24' W 086°45'11 6.1
2018-May-15 08:07N 30°25' W 086°32'1 7.2
2018-May-15 07:59N 30°25' W 086°31'3 7.2
2018-May-15 07:30N 30°26' W 086°27'4 7.2
2018-May-15 07:00N 30°26' W 086°23'4 7.1
2018-May-15 06:30N 30°26' W 086°19'  
Track history (hours):
 
Tides and Currents Weather Stations Pressure Air Temp Water Temp Dewpoint Dewpoint Depression Visibility Wind Speed Wind Dir Waves Ship Positions

Steven M. Bryan

Owner: Florida Marine Transporters, Inc., Mandeville, LA. More information available from US FCC via Universal Licensing System and Coast Guard Vessel Documentation Center.

Last reported at 2018-May-23 12:07 UTC. Time now 2018-May-27 03:24 UTC.
Position N 30°27' W 086°18'.

Length 27 m; draft 9.6 m.

Type: Ship. MMSI: 367430050.

Date/timePositionNaut miles runAvg speedWind from/ knotsBaromVisibWave heightAir tempDewpointWater temp
2018-May-23 12:07N 30°27' W 086°18'1 6.1
2018-May-23 12:00N 30°26' W 086°18'3 6.1
2018-May-23 11:30N 30°26' W 086°22'3 6.0
2018-May-23 11:00N 30°26' W 086°25'3 6.1
2018-May-23 10:30N 30°26' W 086°29'13 5.0
2018-May-23 07:53N 30°24' W 086°44'2 5.0
2018-May-23 07:30N 30°24' W 086°46'3 5.7
2018-May-23 07:00N 30°24' W 086°49'3 5.4
2018-May-23 06:30N 30°24' W 086°53'  
2018-May-15 11:33N 30°23' W 086°56'1 6.1
2018-May-15 11:28N 30°23' W 086°55'3 6.1
2018-May-15 11:00N 30°24' W 086°52'3 6.2
2018-May-15 10:30N 30°24' W 086°49'3 6.3
2018-May-15 10:00N 30°24' W 086°45'11 6.1
2018-May-15 08:07N 30°25' W 086°32'1 7.2
2018-May-15 07:59N 30°25' W 086°31'3 7.2
2018-May-15 07:30N 30°26' W 086°27'4 7.2
2018-May-15 07:00N 30°26' W 086°23'4 7.1
2018-May-15 06:30N 30°26' W 086°19'  

Dump ship's entire track history